sensor_id;sensor_type;location;lat;lon;timestamp;P1;durP1;ratioP1;P2;durP2;ratioP2
50976;SDS011;36992;48.200;12.418;2022-11-15T00:00:26;7.28;;;4.03;;
50976;SDS011;36992;48.200;12.418;2022-11-15T00:02:53;8.70;;;4.03;;
50976;SDS011;36992;48.200;12.418;2022-11-15T00:05:20;9.85;;;3.92;;
50976;SDS011;36992;48.200;12.418;2022-11-15T00:07:47;8.18;;;4.03;;
50976;SDS011;36992;48.200;12.418;2022-11-15T00:10:13;9.32;;;4.35;;
50976;SDS011;36992;48.200;12.418;2022-11-15T00:12:40;7.43;;;4.30;;
50976;SDS011;36992;48.200;12.418;2022-11-15T00:15:08;6.82;;;3.88;;
50976;SDS011;36992;48.200;12.418;2022-11-15T00:17:35;8.68;;;4.05;;
50976;SDS011;36992;48.200;12.418;2022-11-15T00:20:02;7.75;;;4.05;;
50976;SDS011;36992;48.200;12.418;2022-11-15T00:22:31;7.03;;;3.83;;
50976;SDS011;36992;48.200;12.418;2022-11-15T00:24:58;7.28;;;4.03;;
50976;SDS011;36992;48.200;12.418;2022-11-15T00:27:25;6.70;;;4.28;;
50976;SDS011;36992;48.200;12.418;2022-11-15T00:29:52;5.72;;;3.40;;
50976;SDS011;36992;48.200;12.418;2022-11-15T00:32:20;9.23;;;4.88;;
50976;SDS011;36992;48.200;12.418;2022-11-15T00:34:46;7.65;;;3.10;;
50976;SDS011;36992;48.200;12.418;2022-11-15T00:37:13;7.15;;;3.47;;
50976;SDS011;36992;48.200;12.418;2022-11-15T00:39:39;7.28;;;3.65;;
50976;SDS011;36992;48.200;12.418;2022-11-15T00:42:06;6.65;;;3.55;;
50976;SDS011;36992;48.200;12.418;2022-11-15T00:44:33;5.55;;;3.30;;
50976;SDS011;36992;48.200;12.418;2022-11-15T00:46:59;6.95;;;3.90;;
50976;SDS011;36992;48.200;12.418;2022-11-15T00:49:27;6.72;;;3.28;;
50976;SDS011;36992;48.200;12.418;2022-11-15T00:51:53;6.43;;;3.33;;
50976;SDS011;36992;48.200;12.418;2022-11-15T00:54:20;5.35;;;3.00;;
50976;SDS011;36992;48.200;12.418;2022-11-15T00:56:46;7.63;;;3.95;;
50976;SDS011;36992;48.200;12.418;2022-11-15T00:59:13;7.85;;;3.53;;
50976;SDS011;36992;48.200;12.418;2022-11-15T01:01:40;6.40;;;3.47;;
50976;SDS011;36992;48.200;12.418;2022-11-15T01:04:06;7.93;;;3.53;;
50976;SDS011;36992;48.200;12.418;2022-11-15T01:06:34;7.43;;;3.65;;
50976;SDS011;36992;48.200;12.418;2022-11-15T01:09:00;4.75;;;2.95;;
50976;SDS011;36992;48.200;12.418;2022-11-15T01:11:27;6.80;;;3.20;;
50976;SDS011;36992;48.200;12.418;2022-11-15T01:13:54;6.35;;;3.20;;
50976;SDS011;36992;48.200;12.418;2022-11-15T01:16:21;5.40;;;3.20;;
50976;SDS011;36992;48.200;12.418;2022-11-15T01:18:47;5.72;;;3.10;;
50976;SDS011;36992;48.200;12.418;2022-11-15T01:21:15;6.03;;;3.67;;
50976;SDS011;36992;48.200;12.418;2022-11-15T01:23:44;5.25;;;3.35;;
50976;SDS011;36992;48.200;12.418;2022-11-15T01:26:11;5.53;;;2.88;;
50976;SDS011;36992;48.200;12.418;2022-11-15T01:28:40;4.70;;;2.72;;
50976;SDS011;36992;48.200;12.418;2022-11-15T01:31:09;4.97;;;3.00;;
50976;SDS011;36992;48.200;12.418;2022-11-15T01:33:38;5.13;;;2.83;;
50976;SDS011;36992;48.200;12.418;2022-11-15T01:36:05;6.90;;;3.72;;
50976;SDS011;36992;48.200;12.418;2022-11-15T01:38:32;5.07;;;2.90;;
50976;SDS011;36992;48.200;12.418;2022-11-15T01:41:00;5.55;;;2.83;;
50976;SDS011;36992;48.200;12.418;2022-11-15T01:43:28;4.93;;;3.15;;
50976;SDS011;36992;48.200;12.418;2022-11-15T01:45:58;7.68;;;3.05;;
50976;SDS011;36992;48.200;12.418;2022-11-15T01:48:29;4.93;;;2.78;;
50976;SDS011;36992;48.200;12.418;2022-11-15T01:50:58;5.15;;;2.90;;
50976;SDS011;36992;48.200;12.418;2022-11-15T01:53:26;4.88;;;2.80;;
50976;SDS011;36992;48.200;12.418;2022-11-15T01:55:55;5.53;;;2.88;;
50976;SDS011;36992;48.200;12.418;2022-11-15T01:58:23;5.82;;;2.58;;
50976;SDS011;36992;48.200;12.418;2022-11-15T02:00:50;4.18;;;2.38;;
50976;SDS011;36992;48.200;12.418;2022-11-15T02:03:17;5.43;;;2.53;;
50976;SDS011;36992;48.200;12.418;2022-11-15T02:05:45;5.47;;;2.72;;
50976;SDS011;36992;48.200;12.418;2022-11-15T02:08:11;5.30;;;2.08;;
50976;SDS011;36992;48.200;12.418;2022-11-15T02:10:44;4.55;;;2.60;;
50976;SDS011;36992;48.200;12.418;2022-11-15T02:13:11;4.45;;;2.10;;
50976;SDS011;36992;48.200;12.418;2022-11-15T02:15:40;4.50;;;2.30;;
50976;SDS011;36992;48.200;12.418;2022-11-15T02:18:18;4.05;;;2.20;;
50976;SDS011;36992;48.200;12.418;2022-11-15T02:20:58;5.72;;;2.65;;
50976;SDS011;36992;48.200;12.418;2022-11-15T02:23:54;4.43;;;2.10;;
50976;SDS011;36992;48.200;12.418;2022-11-15T02:29:32;4.88;;;2.33;;
50976;SDS011;36992;48.200;12.418;2022-11-15T02:32:18;5.97;;;2.20;;
50976;SDS011;36992;48.200;12.418;2022-11-15T02:34:48;6.25;;;2.72;;
50976;SDS011;36992;48.200;12.418;2022-11-15T02:37:21;7.88;;;3.05;;
50976;SDS011;36992;48.200;12.418;2022-11-15T02:39:55;6.10;;;3.30;;
50976;SDS011;36992;48.200;12.418;2022-11-15T02:42:33;6.53;;;2.97;;
50976;SDS011;36992;48.200;12.418;2022-11-15T02:45:21;5.28;;;2.10;;
50976;SDS011;36992;48.200;12.418;2022-11-15T02:47:54;5.28;;;2.33;;
50976;SDS011;36992;48.200;12.418;2022-11-15T02:50:24;6.10;;;2.83;;
50976;SDS011;36992;48.200;12.418;2022-11-15T02:52:54;5.28;;;2.60;;
50976;SDS011;36992;48.200;12.418;2022-11-15T02:55:25;5.30;;;2.42;;
50976;SDS011;36992;48.200;12.418;2022-11-15T02:57:55;6.35;;;2.97;;
50976;SDS011;36992;48.200;12.418;2022-11-15T03:00:34;4.88;;;2.33;;
50976;SDS011;36992;48.200;12.418;2022-11-15T03:06:00;5.75;;;2.38;;
50976;SDS011;36992;48.200;12.418;2022-11-15T03:08:37;3.95;;;1.85;;
50976;SDS011;36992;48.200;12.418;2022-11-15T03:11:11;3.42;;;1.77;;
50976;SDS011;36992;48.200;12.418;2022-11-15T03:13:43;3.95;;;1.85;;
50976;SDS011;36992;48.200;12.418;2022-11-15T03:16:15;6.03;;;2.40;;
50976;SDS011;36992;48.200;12.418;2022-11-15T03:18:51;4.18;;;1.90;;
50976;SDS011;36992;48.200;12.418;2022-11-15T03:21:21;4.30;;;1.85;;
50976;SDS011;36992;48.200;12.418;2022-11-15T03:23:50;3.72;;;1.80;;
50976;SDS011;36992;48.200;12.418;2022-11-15T03:26:18;3.50;;;1.65;;
50976;SDS011;36992;48.200;12.418;2022-11-15T03:28:50;3.05;;;1.52;;
50976;SDS011;36992;48.200;12.418;2022-11-15T03:31:19;3.22;;;1.70;;
50976;SDS011;36992;48.200;12.418;2022-11-15T03:34:08;3.65;;;1.42;;
50976;SDS011;36992;48.200;12.418;2022-11-15T03:36:40;5.25;;;1.38;;
50976;SDS011;36992;48.200;12.418;2022-11-15T03:39:07;3.05;;;1.27;;
50976;SDS011;36992;48.200;12.418;2022-11-15T03:41:35;2.67;;;1.40;;
50976;SDS011;36992;48.200;12.418;2022-11-15T03:44:08;3.15;;;1.52;;
50976;SDS011;36992;48.200;12.418;2022-11-15T03:46:42;3.63;;;1.30;;
50976;SDS011;36992;48.200;12.418;2022-11-15T03:49:15;3.15;;;1.38;;
50976;SDS011;36992;48.200;12.418;2022-11-15T03:51:46;4.07;;;1.13;;
50976;SDS011;36992;48.200;12.418;2022-11-15T03:54:13;5.47;;;2.45;;
50976;SDS011;36992;48.200;12.418;2022-11-15T03:56:39;3.42;;;1.30;;
50976;SDS011;36992;48.200;12.418;2022-11-15T03:59:06;5.47;;;1.75;;
50976;SDS011;36992;48.200;12.418;2022-11-15T04:01:32;3.47;;;1.52;;
50976;SDS011;36992;48.200;12.418;2022-11-15T04:03:59;8.27;;;3.25;;
50976;SDS011;36992;48.200;12.418;2022-11-15T04:06:26;5.22;;;2.80;;
50976;SDS011;36992;48.200;12.418;2022-11-15T04:08:53;5.38;;;2.70;;
50976;SDS011;36992;48.200;12.418;2022-11-15T04:11:19;7.10;;;3.10;;
50976;SDS011;36992;48.200;12.418;2022-11-15T04:13:46;6.68;;;3.00;;
50976;SDS011;36992;48.200;12.418;2022-11-15T04:16:12;5.65;;;2.95;;
50976;SDS011;36992;48.200;12.418;2022-11-15T04:18:39;5.57;;;2.65;;
50976;SDS011;36992;48.200;12.418;2022-11-15T04:21:05;6.07;;;2.35;;
50976;SDS011;36992;48.200;12.418;2022-11-15T04:23:52;5.88;;;2.95;;
50976;SDS011;36992;48.200;12.418;2022-11-15T04:26:36;4.97;;;2.30;;
50976;SDS011;36992;48.200;12.418;2022-11-15T04:29:02;4.97;;;2.40;;
50976;SDS011;36992;48.200;12.418;2022-11-15T04:31:46;4.07;;;1.98;;
50976;SDS011;36992;48.200;12.418;2022-11-15T04:34:13;5.10;;;2.75;;
50976;SDS011;36992;48.200;12.418;2022-11-15T04:36:39;4.85;;;2.08;;
50976;SDS011;36992;48.200;12.418;2022-11-15T04:39:25;5.22;;;2.90;;
50976;SDS011;36992;48.200;12.418;2022-11-15T04:41:51;6.03;;;2.85;;
50976;SDS011;36992;48.200;12.418;2022-11-15T04:44:18;4.95;;;2.60;;
50976;SDS011;36992;48.200;12.418;2022-11-15T04:46:44;4.60;;;2.65;;
50976;SDS011;36992;48.200;12.418;2022-11-15T04:49:11;4.70;;;2.55;;
50976;SDS011;36992;48.200;12.418;2022-11-15T04:51:37;5.22;;;2.30;;
50976;SDS011;36992;48.200;12.418;2022-11-15T04:54:04;7.05;;;2.72;;
50976;SDS011;36992;48.200;12.418;2022-11-15T04:56:31;10.55;;;3.70;;
50976;SDS011;36992;48.200;12.418;2022-11-15T04:58:58;8.70;;;3.60;;
50976;SDS011;36992;48.200;12.418;2022-11-15T05:01:24;7.60;;;2.33;;
50976;SDS011;36992;48.200;12.418;2022-11-15T05:03:51;5.82;;;2.42;;
50976;SDS011;36992;48.200;12.418;2022-11-15T05:06:35;6.72;;;2.22;;
50976;SDS011;36992;48.200;12.418;2022-11-15T05:09:01;3.85;;;2.15;;
50976;SDS011;36992;48.200;12.418;2022-11-15T05:11:28;3.53;;;1.80;;
50976;SDS011;36992;48.200;12.418;2022-11-15T05:13:56;5.22;;;2.08;;
50976;SDS011;36992;48.200;12.418;2022-11-15T05:16:23;4.03;;;2.17;;
50976;SDS011;36992;48.200;12.418;2022-11-15T05:18:50;4.70;;;2.40;;
50976;SDS011;36992;48.200;12.418;2022-11-15T05:21:17;3.53;;;1.58;;
50976;SDS011;36992;48.200;12.418;2022-11-15T05:23:43;5.93;;;1.95;;
50976;SDS011;36992;48.200;12.418;2022-11-15T05:26:10;5.05;;;2.00;;
50976;SDS011;36992;48.200;12.418;2022-11-15T05:28:37;3.58;;;1.70;;
50976;SDS011;36992;48.200;12.418;2022-11-15T05:31:07;4.32;;;1.88;;
50976;SDS011;36992;48.200;12.418;2022-11-15T05:33:35;2.78;;;1.42;;
50976;SDS011;36992;48.200;12.418;2022-11-15T05:36:04;4.85;;;2.25;;
50976;SDS011;36992;48.200;12.418;2022-11-15T05:38:33;4.72;;;2.13;;
50976;SDS011;36992;48.200;12.418;2022-11-15T05:41:00;4.35;;;2.20;;
50976;SDS011;36992;48.200;12.418;2022-11-15T05:43:27;4.82;;;1.92;;
50976;SDS011;36992;48.200;12.418;2022-11-15T05:45:56;3.80;;;1.70;;
50976;SDS011;36992;48.200;12.418;2022-11-15T05:48:25;3.20;;;1.60;;
50976;SDS011;36992;48.200;12.418;2022-11-15T05:50:52;4.45;;;1.80;;
50976;SDS011;36992;48.200;12.418;2022-11-15T05:53:19;3.40;;;1.52;;
50976;SDS011;36992;48.200;12.418;2022-11-15T05:55:48;3.50;;;1.73;;
50976;SDS011;36992;48.200;12.418;2022-11-15T05:58:15;4.80;;;1.98;;
50976;SDS011;36992;48.200;12.418;2022-11-15T06:00:42;4.57;;;2.17;;
50976;SDS011;36992;48.200;12.418;2022-11-15T06:03:09;3.70;;;1.85;;
50976;SDS011;36992;48.200;12.418;2022-11-15T06:05:37;4.07;;;1.85;;
50976;SDS011;36992;48.200;12.418;2022-11-15T06:08:03;4.50;;;2.47;;
50976;SDS011;36992;48.200;12.418;2022-11-15T06:10:30;5.57;;;3.28;;
50976;SDS011;36992;48.200;12.418;2022-11-15T06:12:57;5.45;;;2.60;;
50976;SDS011;36992;48.200;12.418;2022-11-15T06:15:24;4.25;;;2.22;;
50976;SDS011;36992;48.200;12.418;2022-11-15T06:17:50;4.35;;;2.33;;
50976;SDS011;36992;48.200;12.418;2022-11-15T06:20:17;4.47;;;2.20;;
50976;SDS011;36992;48.200;12.418;2022-11-15T06:22:45;4.68;;;2.33;;
50976;SDS011;36992;48.200;12.418;2022-11-15T06:25:11;5.82;;;3.25;;
50976;SDS011;36992;48.200;12.418;2022-11-15T06:27:38;5.53;;;2.65;;
50976;SDS011;36992;48.200;12.418;2022-11-15T06:30:05;4.53;;;2.40;;
50976;SDS011;36992;48.200;12.418;2022-11-15T06:32:32;3.95;;;2.15;;
50976;SDS011;36992;48.200;12.418;2022-11-15T06:34:58;4.35;;;2.05;;
50976;SDS011;36992;48.200;12.418;2022-11-15T06:37:25;4.72;;;2.58;;
50976;SDS011;36992;48.200;12.418;2022-11-15T06:39:53;4.93;;;2.65;;
50976;SDS011;36992;48.200;12.418;2022-11-15T06:42:19;6.13;;;3.00;;
50976;SDS011;36992;48.200;12.418;2022-11-15T06:44:46;5.78;;;2.78;;
50976;SDS011;36992;48.200;12.418;2022-11-15T06:47:12;8.73;;;3.60;;
50976;SDS011;36992;48.200;12.418;2022-11-15T06:49:39;6.50;;;3.10;;
50976;SDS011;36992;48.200;12.418;2022-11-15T06:52:05;6.93;;;3.22;;
50976;SDS011;36992;48.200;12.418;2022-11-15T06:54:32;8.98;;;3.78;;
50976;SDS011;36992;48.200;12.418;2022-11-15T06:56:59;9.15;;;3.58;;
50976;SDS011;36992;48.200;12.418;2022-11-15T06:59:26;7.40;;;3.75;;
50976;SDS011;36992;48.200;12.418;2022-11-15T07:01:52;7.88;;;3.17;;
50976;SDS011;36992;48.200;12.418;2022-11-15T07:04:19;6.95;;;2.95;;
50976;SDS011;36992;48.200;12.418;2022-11-15T07:06:46;7.63;;;2.60;;
50976;SDS011;36992;48.200;12.418;2022-11-15T07:09:13;7.53;;;3.33;;
50976;SDS011;36992;48.200;12.418;2022-11-15T07:11:39;6.93;;;3.33;;
50976;SDS011;36992;48.200;12.418;2022-11-15T07:14:07;6.60;;;3.08;;
50976;SDS011;36992;48.200;12.418;2022-11-15T07:16:34;7.03;;;3.42;;
50976;SDS011;36992;48.200;12.418;2022-11-15T07:19:02;6.70;;;3.45;;
50976;SDS011;36992;48.200;12.418;2022-11-15T07:21:29;8.45;;;4.82;;
50976;SDS011;36992;48.200;12.418;2022-11-15T07:23:55;9.93;;;4.07;;
50976;SDS011;36992;48.200;12.418;2022-11-15T07:26:22;10.02;;;4.22;;
50976;SDS011;36992;48.200;12.418;2022-11-15T07:28:48;8.48;;;4.32;;
50976;SDS011;36992;48.200;12.418;2022-11-15T07:31:16;8.60;;;4.32;;
50976;SDS011;36992;48.200;12.418;2022-11-15T07:33:42;7.25;;;3.42;;
50976;SDS011;36992;48.200;12.418;2022-11-15T07:36:09;7.95;;;3.75;;
50976;SDS011;36992;48.200;12.418;2022-11-15T07:38:35;7.65;;;3.45;;
50976;SDS011;36992;48.200;12.418;2022-11-15T07:41:03;6.43;;;2.60;;
50976;SDS011;36992;48.200;12.418;2022-11-15T07:43:30;6.20;;;2.50;;
50976;SDS011;36992;48.200;12.418;2022-11-15T07:45:58;5.45;;;2.15;;
50976;SDS011;36992;48.200;12.418;2022-11-15T07:48:31;4.50;;;1.92;;
50976;SDS011;36992;48.200;12.418;2022-11-15T07:50:57;4.90;;;2.40;;
50976;SDS011;36992;48.200;12.418;2022-11-15T07:53:24;4.30;;;1.80;;
50976;SDS011;36992;48.200;12.418;2022-11-15T07:55:50;4.18;;;1.73;;
50976;SDS011;36992;48.200;12.418;2022-11-15T07:58:18;5.43;;;1.92;;
50976;SDS011;36992;48.200;12.418;2022-11-15T08:00:45;3.35;;;1.52;;
50976;SDS011;36992;48.200;12.418;2022-11-15T08:03:12;3.80;;;1.77;;
50976;SDS011;36992;48.200;12.418;2022-11-15T08:05:42;4.28;;;1.48;;
50976;SDS011;36992;48.200;12.418;2022-11-15T08:08:10;3.95;;;2.05;;
50976;SDS011;36992;48.200;12.418;2022-11-15T08:10:37;4.53;;;2.03;;
50976;SDS011;36992;48.200;12.418;2022-11-15T08:13:04;3.70;;;1.92;;
50976;SDS011;36992;48.200;12.418;2022-11-15T08:15:32;4.30;;;2.58;;
50976;SDS011;36992;48.200;12.418;2022-11-15T08:18:00;3.50;;;1.90;;
50976;SDS011;36992;48.200;12.418;2022-11-15T08:20:31;3.88;;;1.70;;
50976;SDS011;36992;48.200;12.418;2022-11-15T08:23:01;3.88;;;2.40;;
50976;SDS011;36992;48.200;12.418;2022-11-15T08:25:30;4.43;;;2.10;;
50976;SDS011;36992;48.200;12.418;2022-11-15T08:27:59;4.03;;;1.73;;
50976;SDS011;36992;48.200;12.418;2022-11-15T08:30:28;4.22;;;2.10;;
50976;SDS011;36992;48.200;12.418;2022-11-15T08:32:56;3.67;;;1.80;;
50976;SDS011;36992;48.200;12.418;2022-11-15T08:35:24;4.60;;;2.00;;
50976;SDS011;36992;48.200;12.418;2022-11-15T08:37:51;2.90;;;1.40;;
50976;SDS011;36992;48.200;12.418;2022-11-15T08:40:20;2.83;;;1.48;;
50976;SDS011;36992;48.200;12.418;2022-11-15T08:42:47;4.63;;;1.67;;
50976;SDS011;36992;48.200;12.418;2022-11-15T08:45:14;3.75;;;1.98;;
50976;SDS011;36992;48.200;12.418;2022-11-15T08:47:41;4.55;;;2.20;;
50976;SDS011;36992;48.200;12.418;2022-11-15T08:50:07;3.83;;;1.95;;
50976;SDS011;36992;48.200;12.418;2022-11-15T08:52:34;3.65;;;1.60;;
50976;SDS011;36992;48.200;12.418;2022-11-15T08:55:01;4.10;;;1.73;;
50976;SDS011;36992;48.200;12.418;2022-11-15T08:57:29;3.67;;;1.60;;
50976;SDS011;36992;48.200;12.418;2022-11-15T08:59:56;6.57;;;2.33;;
50976;SDS011;36992;48.200;12.418;2022-11-15T09:02:23;3.83;;;1.85;;
50976;SDS011;36992;48.200;12.418;2022-11-15T09:04:50;4.00;;;1.95;;
50976;SDS011;36992;48.200;12.418;2022-11-15T09:07:16;3.65;;;2.22;;
50976;SDS011;36992;48.200;12.418;2022-11-15T09:09:43;5.05;;;2.22;;
50976;SDS011;36992;48.200;12.418;2022-11-15T09:12:10;5.03;;;2.33;;
50976;SDS011;36992;48.200;12.418;2022-11-15T09:14:38;3.83;;;2.33;;
50976;SDS011;36992;48.200;12.418;2022-11-15T09:17:06;3.95;;;2.20;;
50976;SDS011;36992;48.200;12.418;2022-11-15T09:19:33;4.60;;;2.15;;
50976;SDS011;36992;48.200;12.418;2022-11-15T09:22:00;4.78;;;2.00;;
50976;SDS011;36992;48.200;12.418;2022-11-15T09:24:26;3.65;;;1.95;;
50976;SDS011;36992;48.200;12.418;2022-11-15T09:26:53;5.95;;;2.03;;
50976;SDS011;36992;48.200;12.418;2022-11-15T09:29:19;3.75;;;2.30;;
50976;SDS011;36992;48.200;12.418;2022-11-15T09:31:47;4.07;;;1.85;;
50976;SDS011;36992;48.200;12.418;2022-11-15T09:34:14;3.67;;;2.13;;
50976;SDS011;36992;48.200;12.418;2022-11-15T09:36:40;3.60;;;1.98;;
50976;SDS011;36992;48.200;12.418;2022-11-15T09:39:07;4.00;;;2.22;;
50976;SDS011;36992;48.200;12.418;2022-11-15T09:41:38;5.60;;;2.58;;
50976;SDS011;36992;48.200;12.418;2022-11-15T09:44:19;5.32;;;2.22;;
50976;SDS011;36992;48.200;12.418;2022-11-15T09:46:58;5.38;;;2.58;;
50976;SDS011;36992;48.200;12.418;2022-11-15T09:49:33;4.43;;;1.77;;
50976;SDS011;36992;48.200;12.418;2022-11-15T09:51:59;5.05;;;2.58;;
50976;SDS011;36992;48.200;12.418;2022-11-15T09:54:28;8.07;;;2.72;;
50976;SDS011;36992;48.200;12.418;2022-11-15T09:57:04;4.90;;;1.95;;
50976;SDS011;36992;48.200;12.418;2022-11-15T09:59:41;5.75;;;2.10;;
50976;SDS011;36992;48.200;12.418;2022-11-15T10:02:22;3.92;;;2.22;;
50976;SDS011;36992;48.200;12.418;2022-11-15T10:04:59;4.43;;;2.38;;
50976;SDS011;36992;48.200;12.418;2022-11-15T10:07:29;4.93;;;2.45;;
50976;SDS011;36992;48.200;12.418;2022-11-15T10:10:00;4.22;;;2.15;;
50976;SDS011;36992;48.200;12.418;2022-11-15T10:12:30;4.85;;;2.08;;
50976;SDS011;36992;48.200;12.418;2022-11-15T10:14:58;4.55;;;2.67;;
50976;SDS011;36992;48.200;12.418;2022-11-15T10:17:40;4.60;;;2.40;;
50976;SDS011;36992;48.200;12.418;2022-11-15T10:20:22;4.63;;;2.72;;
50976;SDS011;36992;48.200;12.418;2022-11-15T10:22:52;6.28;;;2.67;;
50976;SDS011;36992;48.200;12.418;2022-11-15T10:25:22;4.45;;;2.50;;
50976;SDS011;36992;48.200;12.418;2022-11-15T10:27:53;5.82;;;2.17;;
50976;SDS011;36992;48.200;12.418;2022-11-15T10:30:21;3.47;;;1.90;;
50976;SDS011;36992;48.200;12.418;2022-11-15T10:32:49;3.33;;;2.28;;
50976;SDS011;36992;48.200;12.418;2022-11-15T10:35:17;4.40;;;2.13;;
50976;SDS011;36992;48.200;12.418;2022-11-15T10:37:45;4.88;;;2.33;;
50976;SDS011;36992;48.200;12.418;2022-11-15T10:40:15;4.68;;;2.50;;
50976;SDS011;36992;48.200;12.418;2022-11-15T10:42:43;4.30;;;2.35;;
50976;SDS011;36992;48.200;12.418;2022-11-15T10:45:22;4.43;;;2.38;;
50976;SDS011;36992;48.200;12.418;2022-11-15T10:47:52;4.15;;;2.25;;
50976;SDS011;36992;48.200;12.418;2022-11-15T10:50:26;4.72;;;2.92;;
50976;SDS011;36992;48.200;12.418;2022-11-15T10:52:54;3.90;;;2.08;;
50976;SDS011;36992;48.200;12.418;2022-11-15T10:55:23;5.13;;;2.40;;
50976;SDS011;36992;48.200;12.418;2022-11-15T10:57:54;4.15;;;2.28;;
50976;SDS011;36992;48.200;12.418;2022-11-15T11:00:30;3.40;;;2.13;;
50976;SDS011;36992;48.200;12.418;2022-11-15T11:03:01;4.53;;;2.40;;
50976;SDS011;36992;48.200;12.418;2022-11-15T11:05:29;4.18;;;2.40;;
50976;SDS011;36992;48.200;12.418;2022-11-15T11:07:59;6.03;;;3.10;;
50976;SDS011;36992;48.200;12.418;2022-11-15T11:10:27;5.10;;;2.80;;
50976;SDS011;36992;48.200;12.418;2022-11-15T11:12:54;4.68;;;2.58;;
50976;SDS011;36992;48.200;12.418;2022-11-15T11:15:20;4.93;;;2.80;;
50976;SDS011;36992;48.200;12.418;2022-11-15T11:17:54;5.55;;;2.90;;
50976;SDS011;36992;48.200;12.418;2022-11-15T11:20:30;4.30;;;2.55;;
50976;SDS011;36992;48.200;12.418;2022-11-15T11:23:03;3.65;;;1.85;;
50976;SDS011;36992;48.200;12.418;2022-11-15T11:25:43;5.72;;;2.33;;
50976;SDS011;36992;48.200;12.418;2022-11-15T11:28:23;4.88;;;2.38;;
50976;SDS011;36992;48.200;12.418;2022-11-15T11:31:02;3.67;;;1.67;;
50976;SDS011;36992;48.200;12.418;2022-11-15T11:33:41;3.95;;;2.42;;
50976;SDS011;36992;48.200;12.418;2022-11-15T11:36:14;4.80;;;2.95;;
50976;SDS011;36992;48.200;12.418;2022-11-15T11:41:46;4.65;;;2.47;;
50976;SDS011;36992;48.200;12.418;2022-11-15T11:44:24;4.63;;;2.58;;
50976;SDS011;36992;48.200;12.418;2022-11-15T11:47:01;3.58;;;1.67;;
50976;SDS011;36992;48.200;12.418;2022-11-15T11:49:31;4.18;;;2.30;;
50976;SDS011;36992;48.200;12.418;2022-11-15T11:52:05;4.60;;;2.67;;
50976;SDS011;36992;48.200;12.418;2022-11-15T11:54:39;4.40;;;2.10;;
50976;SDS011;36992;48.200;12.418;2022-11-15T11:57:17;4.25;;;1.90;;
50976;SDS011;36992;48.200;12.418;2022-11-15T11:59:55;4.32;;;2.17;;
50976;SDS011;36992;48.200;12.418;2022-11-15T12:02:27;5.25;;;2.58;;
50976;SDS011;36992;48.200;12.418;2022-11-15T12:04:59;4.53;;;2.28;;
50976;SDS011;36992;48.200;12.418;2022-11-15T12:07:35;5.07;;;2.65;;
50976;SDS011;36992;48.200;12.418;2022-11-15T12:10:04;7.47;;;2.92;;
50976;SDS011;36992;48.200;12.418;2022-11-15T12:12:44;3.38;;;2.03;;
50976;SDS011;36992;48.200;12.418;2022-11-15T12:15:16;4.55;;;2.80;;
50976;SDS011;36992;48.200;12.418;2022-11-15T12:17:45;5.22;;;2.55;;
50976;SDS011;36992;48.200;12.418;2022-11-15T12:20:14;3.42;;;2.00;;
50976;SDS011;36992;48.200;12.418;2022-11-15T12:22:46;5.03;;;1.92;;
50976;SDS011;36992;48.200;12.418;2022-11-15T12:25:18;3.53;;;1.33;;
50976;SDS011;36992;48.200;12.418;2022-11-15T12:27:48;3.47;;;2.05;;
50976;SDS011;36992;48.200;12.418;2022-11-15T12:30:21;3.67;;;1.63;;
50976;SDS011;36992;48.200;12.418;2022-11-15T12:32:49;3.38;;;1.80;;
50976;SDS011;36992;48.200;12.418;2022-11-15T12:35:37;3.88;;;1.60;;
50976;SDS011;36992;48.200;12.418;2022-11-15T12:38:09;4.30;;;2.20;;
50976;SDS011;36992;48.200;12.418;2022-11-15T12:40:37;3.60;;;1.70;;
50976;SDS011;36992;48.200;12.418;2022-11-15T12:46:05;5.03;;;1.90;;
50976;SDS011;36992;48.200;12.418;2022-11-15T12:48:46;4.15;;;1.98;;
50976;SDS011;36992;48.200;12.418;2022-11-15T12:51:15;5.15;;;2.20;;
50976;SDS011;36992;48.200;12.418;2022-11-15T12:53:43;3.17;;;1.70;;
50976;SDS011;36992;48.200;12.418;2022-11-15T12:56:20;3.75;;;1.77;;
50976;SDS011;36992;48.200;12.418;2022-11-15T12:58:48;3.20;;;1.98;;
50976;SDS011;36992;48.200;12.418;2022-11-15T13:04:24;3.28;;;1.65;;
50976;SDS011;36992;48.200;12.418;2022-11-15T13:06:53;2.65;;;1.50;;
50976;SDS011;36992;48.200;12.418;2022-11-15T13:15:36;3.90;;;1.52;;
50976;SDS011;36992;48.200;12.418;2022-11-15T13:18:31;3.47;;;1.90;;
50976;SDS011;36992;48.200;12.418;2022-11-15T13:21:01;3.30;;;2.00;;
50976;SDS011;36992;48.200;12.418;2022-11-15T13:23:51;3.20;;;1.75;;
50976;SDS011;36992;48.200;12.418;2022-11-15T13:26:19;4.60;;;1.83;;
50976;SDS011;36992;48.200;12.418;2022-11-15T13:28:47;3.30;;;1.67;;
50976;SDS011;36992;48.200;12.418;2022-11-15T13:31:24;3.80;;;1.90;;
50976;SDS011;36992;48.200;12.418;2022-11-15T13:33:55;2.70;;;1.60;;
50976;SDS011;36992;48.200;12.418;2022-11-15T13:36:25;2.90;;;1.80;;
50976;SDS011;36992;48.200;12.418;2022-11-15T13:38:54;4.10;;;1.73;;
50976;SDS011;36992;48.200;12.418;2022-11-15T13:41:24;2.75;;;1.60;;
50976;SDS011;36992;48.200;12.418;2022-11-15T13:43:53;3.92;;;1.95;;
50976;SDS011;36992;48.200;12.418;2022-11-15T13:46:21;3.72;;;1.58;;
50976;SDS011;36992;48.200;12.418;2022-11-15T13:48:52;3.95;;;1.75;;
50976;SDS011;36992;48.200;12.418;2022-11-15T13:51:22;3.20;;;1.40;;
50976;SDS011;36992;48.200;12.418;2022-11-15T13:53:55;2.83;;;1.50;;
50976;SDS011;36992;48.200;12.418;2022-11-15T13:56:25;3.17;;;1.67;;
50976;SDS011;36992;48.200;12.418;2022-11-15T13:58:54;2.78;;;1.33;;
50976;SDS011;36992;48.200;12.418;2022-11-15T14:01:21;2.83;;;1.30;;
50976;SDS011;36992;48.200;12.418;2022-11-15T14:03:50;2.78;;;1.27;;
50976;SDS011;36992;48.200;12.418;2022-11-15T14:06:20;2.83;;;1.55;;
50976;SDS011;36992;48.200;12.418;2022-11-15T14:09:04;2.75;;;1.50;;
50976;SDS011;36992;48.200;12.418;2022-11-15T14:11:52;3.33;;;1.70;;
50976;SDS011;36992;48.200;12.418;2022-11-15T14:14:21;3.05;;;1.70;;
50976;SDS011;36992;48.200;12.418;2022-11-15T14:16:49;3.33;;;1.67;;
50976;SDS011;36992;48.200;12.418;2022-11-15T14:19:33;2.60;;;1.50;;
50976;SDS011;36992;48.200;12.418;2022-11-15T14:22:16;1.98;;;0.93;;
50976;SDS011;36992;48.200;12.418;2022-11-15T14:24:46;3.08;;;1.42;;
50976;SDS011;36992;48.200;12.418;2022-11-15T14:27:19;3.92;;;1.38;;
50976;SDS011;36992;48.200;12.418;2022-11-15T14:29:48;3.28;;;1.52;;
50976;SDS011;36992;48.200;12.418;2022-11-15T14:32:15;3.13;;;1.80;;
50976;SDS011;36992;48.200;12.418;2022-11-15T14:34:44;3.28;;;1.60;;
50976;SDS011;36992;48.200;12.418;2022-11-15T14:37:21;3.50;;;1.48;;
50976;SDS011;36992;48.200;12.418;2022-11-15T14:39:49;2.17;;;1.08;;
50976;SDS011;36992;48.200;12.418;2022-11-15T14:42:16;2.92;;;1.92;;
50976;SDS011;36992;48.200;12.418;2022-11-15T14:44:45;3.88;;;1.88;;
50976;SDS011;36992;48.200;12.418;2022-11-15T14:47:12;3.05;;;1.40;;
50976;SDS011;36992;48.200;12.418;2022-11-15T14:49:39;3.58;;;1.30;;
50976;SDS011;36992;48.200;12.418;2022-11-15T14:52:07;3.60;;;1.63;;
50976;SDS011;36992;48.200;12.418;2022-11-15T14:54:50;3.03;;;1.23;;
50976;SDS011;36992;48.200;12.418;2022-11-15T14:57:16;4.45;;;1.75;;
50976;SDS011;36992;48.200;12.418;2022-11-15T14:59:44;4.32;;;2.70;;
50976;SDS011;36992;48.200;12.418;2022-11-15T15:02:13;4.10;;;2.33;;
50976;SDS011;36992;48.200;12.418;2022-11-15T15:04:42;4.53;;;2.00;;
50976;SDS011;36992;48.200;12.418;2022-11-15T15:07:09;3.15;;;1.98;;
50976;SDS011;36992;48.200;12.418;2022-11-15T15:09:35;5.15;;;2.22;;